createdAt,value
2019-05-09T00:01:34.755Z,13.10
2019-05-09T00:04:03.734Z,13.10
2019-05-09T00:06:34.016Z,13.10
2019-05-09T00:09:03.809Z,13.10
2019-05-09T00:11:33.579Z,13.10
2019-05-09T00:14:04.393Z,13.10
2019-05-09T00:16:33.613Z,13.10
2019-05-09T00:19:03.310Z,13.10
2019-05-09T00:21:38.029Z,13.10
2019-05-09T00:24:06.845Z,13.10
2019-05-09T00:26:35.663Z,13.10
2019-05-09T00:29:09.476Z,13.10
2019-05-09T00:31:54.092Z,13.10
2019-05-09T00:34:33.935Z,13.00
2019-05-09T00:37:03.151Z,13.00
2019-05-09T00:39:34.085Z,13.00
2019-05-09T00:42:04.342Z,13.00
2019-05-09T00:44:35.092Z,13.00
2019-05-09T00:47:10.047Z,13.00
2019-05-09T00:49:38.823Z,12.90
2019-05-09T00:52:07.678Z,12.90
2019-05-09T00:54:36.628Z,12.90
2019-05-09T00:57:05.480Z,12.80
2019-05-09T00:59:34.332Z,12.90
2019-05-09T01:02:03.984Z,12.90
2019-05-09T01:04:33.446Z,12.90
2019-05-09T01:07:03.397Z,12.80
2019-05-09T01:09:33.419Z,12.80
2019-05-09T01:12:04.152Z,12.80
2019-05-09T01:14:33.977Z,12.70
2019-05-09T01:17:04.281Z,12.80
2019-05-09T01:19:33.872Z,12.80
2019-05-09T01:22:03.708Z,12.80
2019-05-09T01:24:33.815Z,12.70
2019-05-09T01:27:03.584Z,12.80
2019-05-09T01:29:33.712Z,12.80
2019-05-09T01:32:07.161Z,12.80
2019-05-09T01:34:36.485Z,12.80
2019-05-09T01:37:06.572Z,12.80
2019-05-09T01:39:36.595Z,12.70
2019-05-09T01:42:05.992Z,12.80
2019-05-09T01:44:35.020Z,12.80
2019-05-09T01:47:04.058Z,12.80
2019-05-09T01:49:34.176Z,12.80
2019-05-09T01:52:03.772Z,12.70
2019-05-09T01:54:33.977Z,12.70
2019-05-09T01:57:03.504Z,12.70
2019-05-09T01:59:33.888Z,12.70
2019-05-09T02:02:08.349Z,12.70
2019-05-09T02:04:34.038Z,12.70
2019-05-09T02:07:04.090Z,12.80
2019-05-09T02:09:34.206Z,12.70
2019-05-09T02:12:04.131Z,12.70
2019-05-09T02:14:44.229Z,12.70
2019-05-09T02:17:20.727Z,12.70
2019-05-09T02:19:49.491Z,12.70
2019-05-09T02:22:34.527Z,12.70
2019-05-09T02:25:07.639Z,12.60
2019-05-09T02:27:36.578Z,12.60
2019-05-09T02:30:06.681Z,12.70
2019-05-09T02:32:36.031Z,12.70
2019-05-09T02:35:05.716Z,12.70
2019-05-09T02:37:34.530Z,12.60
2019-05-09T02:40:03.861Z,12.60
2019-05-09T02:42:32.679Z,12.60
2019-05-09T02:45:01.530Z,12.60
2019-05-09T02:47:30.366Z,12.60
2019-05-09T02:49:59.232Z,12.60
2019-05-09T02:52:28.778Z,12.60
2019-05-09T02:54:58.482Z,12.60
2019-05-09T02:57:29.457Z,12.60
2019-05-09T03:00:09.582Z,12.60
2019-05-09T03:03:00.373Z,12.60
2019-05-09T03:05:29.849Z,12.60
2019-05-09T03:07:58.916Z,12.60
2019-05-09T03:10:29.323Z,12.60
2019-05-09T03:12:59.345Z,12.60
2019-05-09T03:15:29.379Z,12.60
2019-05-09T03:17:59.817Z,12.50
2019-05-09T03:20:48.944Z,12.50
2019-05-09T03:23:19.145Z,12.50
2019-05-09T03:25:48.406Z,12.50
2019-05-09T03:28:28.355Z,12.50
2019-05-09T03:30:59.308Z,12.50
2019-05-09T03:33:30.830Z,12.50
2019-05-09T03:35:58.950Z,12.50
2019-05-09T03:38:28.369Z,12.50
2019-05-09T03:40:58.014Z,12.50
2019-05-09T03:43:27.581Z,12.50
2019-05-09T03:46:07.767Z,12.50
2019-05-09T03:48:40.580Z,12.50
2019-05-09T03:51:09.371Z,12.50
2019-05-09T03:53:38.187Z,12.50
2019-05-09T03:56:09.569Z,12.50
2019-05-09T03:58:38.695Z,12.50
2019-05-09T04:01:10.331Z,12.50
2019-05-09T04:03:38.152Z,12.50
2019-05-09T04:06:08.260Z,12.50
2019-05-09T04:08:37.730Z,12.50
2019-05-09T04:11:08.579Z,12.50
2019-05-09T04:13:42.309Z,12.40
2019-05-09T04:16:11.146Z,12.50
2019-05-09T04:18:40.275Z,12.50
2019-05-09T04:21:13.015Z,12.40
2019-05-09T04:23:41.760Z,12.40
2019-05-09T04:26:17.601Z,12.40
2019-05-09T04:28:47.215Z,12.40
2019-05-09T04:31:17.776Z,12.40
2019-05-09T04:33:47.337Z,12.40
2019-05-09T04:36:18.234Z,12.30
2019-05-09T04:38:47.212Z,12.40
2019-05-09T04:41:23.725Z,12.40
2019-05-09T04:43:48.705Z,12.40
2019-05-09T04:46:21.059Z,12.40
2019-05-09T04:48:47.729Z,12.40
2019-05-09T04:51:18.001Z,12.40
2019-05-09T04:53:47.989Z,12.40
2019-05-09T04:56:22.804Z,12.40
2019-05-09T04:58:51.570Z,12.50
2019-05-09T05:01:38.934Z,12.40
2019-05-09T05:04:07.789Z,12.50
2019-05-09T05:06:40.270Z,12.50
2019-05-09T05:09:08.144Z,12.50
2019-05-09T05:11:38.328Z,12.50
2019-05-09T05:14:09.389Z,12.50
2019-05-09T05:16:39.304Z,12.50
2019-05-09T05:19:08.318Z,12.50
2019-05-09T05:21:37.769Z,12.50
2019-05-09T05:24:18.527Z,12.50
2019-05-09T05:26:48.441Z,12.50
2019-05-09T05:29:17.867Z,12.50
2019-05-09T05:31:47.747Z,12.50
2019-05-09T05:34:27.442Z,12.50
2019-05-09T05:36:58.196Z,12.50
2019-05-09T05:39:28.341Z,12.40
2019-05-09T05:41:57.954Z,12.40
2019-05-09T05:44:28.357Z,12.40
2019-05-09T05:47:22.716Z,12.40
2019-05-09T05:49:51.783Z,12.40
2019-05-09T05:52:20.562Z,12.40
2019-05-09T05:54:49.363Z,12.40
2019-05-09T05:57:18.163Z,12.50
2019-05-09T05:59:48.404Z,12.50
2019-05-09T06:02:17.899Z,12.50
2019-05-09T06:04:48.594Z,12.60
2019-05-09T06:07:18.509Z,12.50
2019-05-09T06:09:48.215Z,12.50
2019-05-09T06:12:18.513Z,12.60
2019-05-09T06:14:48.058Z,12.60
2019-05-09T06:17:18.117Z,12.70
2019-05-09T06:19:48.242Z,12.70
2019-05-09T06:22:18.290Z,12.70
2019-05-09T06:24:47.938Z,12.70
2019-05-09T06:27:18.271Z,12.70
2019-05-09T06:29:47.779Z,12.70
2019-05-09T06:32:18.844Z,12.80
2019-05-09T06:34:47.855Z,12.80
2019-05-09T06:37:18.346Z,12.80
2019-05-09T06:39:48.632Z,12.90
2019-05-09T06:42:18.187Z,12.90
2019-05-09T06:45:18.824Z,12.90
2019-05-09T06:47:48.679Z,13.00
2019-05-09T06:50:18.831Z,13.00
2019-05-09T06:52:48.008Z,13.00
2019-05-09T06:55:17.412Z,13.00
2019-05-09T06:57:48.699Z,13.00
2019-05-09T07:00:28.309Z,13.00
2019-05-09T07:03:07.511Z,13.10
2019-05-09T07:05:54.283Z,13.00
2019-05-09T07:08:33.701Z,13.00
2019-05-09T07:11:02.437Z,13.00
2019-05-09T07:13:31.406Z,13.10
2019-05-09T07:16:00.164Z,13.10
2019-05-09T07:18:29.068Z,13.20
2019-05-09T07:20:57.831Z,13.20
2019-05-09T07:23:28.168Z,13.20
2019-05-09T07:26:05.014Z,13.30
2019-05-09T07:28:33.831Z,13.30
2019-05-09T07:31:18.569Z,13.30
2019-05-09T07:34:00.621Z,13.40
2019-05-09T07:36:30.014Z,13.50
2019-05-09T07:38:58.859Z,13.70
2019-05-09T07:41:28.195Z,13.80
2019-05-09T07:43:58.259Z,13.90
2019-05-09T07:46:29.511Z,13.90
2019-05-09T07:48:59.266Z,13.90
2019-05-09T07:51:28.160Z,14.00
2019-05-09T07:53:58.984Z,14.20
2019-05-09T07:56:28.511Z,14.20
2019-05-09T07:58:58.492Z,14.30
2019-05-09T08:01:28.183Z,14.40
2019-05-09T08:03:58.356Z,14.50
2019-05-09T08:06:28.673Z,14.60
2019-05-09T08:08:58.267Z,14.60
2019-05-09T08:11:28.734Z,14.70
2019-05-09T08:13:57.843Z,14.60
2019-05-09T08:16:27.897Z,14.60
2019-05-09T08:18:57.846Z,14.70
2019-05-09T08:21:27.789Z,14.60
2019-05-09T08:23:57.941Z,14.60
2019-05-09T08:26:29.750Z,14.60
2019-05-09T08:28:58.359Z,14.60
2019-05-09T08:31:28.099Z,14.60
2019-05-09T08:33:59.332Z,14.60
2019-05-09T08:36:28.316Z,14.60
2019-05-09T08:38:58.617Z,14.70
2019-05-09T08:41:29.064Z,14.70
2019-05-09T08:43:58.301Z,14.80
2019-05-09T08:46:28.597Z,14.80
2019-05-09T08:48:57.860Z,14.80
2019-05-09T08:51:55.797Z,14.90
2019-05-09T08:57:31.789Z,14.90
2019-05-09T09:00:00.530Z,15.00
2019-05-09T09:02:29.252Z,15.10
2019-05-09T09:04:58.477Z,15.10
2019-05-09T09:07:29.688Z,15.20
2019-05-09T09:09:57.961Z,15.20
2019-05-09T09:12:33.719Z,15.10
2019-05-09T09:14:58.669Z,15.20
2019-05-09T09:17:28.045Z,15.30
2019-05-09T09:19:58.264Z,15.40
2019-05-09T09:22:28.398Z,15.50
2019-05-09T09:24:58.668Z,15.70
2019-05-09T09:27:27.968Z,15.70
2019-05-09T09:30:15.495Z,15.70
2019-05-09T09:32:29.624Z,15.80
2019-05-09T09:34:58.831Z,15.90
2019-05-09T09:37:32.776Z,15.90
2019-05-09T09:39:58.405Z,16.00
2019-05-09T09:42:28.254Z,15.90
2019-05-09T09:44:58.574Z,15.80
2019-05-09T09:47:28.571Z,15.80
2019-05-09T09:49:59.476Z,15.80
2019-05-09T09:52:29.357Z,15.80
2019-05-09T09:54:58.513Z,15.90
2019-05-09T09:57:28.894Z,16.00
2019-05-09T10:00:11.554Z,16.00
2019-05-09T10:02:40.445Z,16.00
2019-05-09T10:05:09.277Z,16.10
2019-05-09T10:07:38.515Z,16.20
2019-05-09T10:10:07.994Z,16.30
2019-05-09T10:12:43.585Z,16.30
2019-05-09T10:15:18.735Z,16.30
2019-05-09T10:18:00.048Z,16.30
2019-05-09T10:20:33.326Z,16.40
2019-05-09T10:23:10.975Z,16.40
2019-05-09T10:25:32.706Z,16.40
2019-05-09T10:28:01.566Z,16.40
2019-05-09T10:30:31.922Z,16.40
2019-05-09T10:33:00.758Z,16.40
2019-05-09T10:35:29.785Z,16.50
2019-05-09T10:37:59.059Z,16.50
2019-05-09T10:40:28.214Z,16.50
2019-05-09T10:43:33.438Z,16.50
2019-05-09T10:46:19.131Z,16.50
2019-05-09T10:48:52.376Z,16.60
2019-05-09T10:51:21.295Z,16.50
2019-05-09T10:53:50.158Z,16.50
2019-05-09T10:56:19.188Z,16.50
2019-05-09T10:58:48.445Z,16.50
2019-05-09T11:01:18.483Z,16.50
2019-05-09T11:03:48.482Z,16.50
2019-05-09T11:06:18.442Z,16.50
2019-05-09T11:08:47.976Z,16.40
2019-05-09T11:11:18.402Z,16.40
2019-05-09T11:13:48.279Z,16.40
2019-05-09T11:16:18.270Z,16.50
2019-05-09T11:18:48.192Z,16.40
2019-05-09T11:21:19.213Z,16.40
2019-05-09T11:23:48.892Z,16.40
2019-05-09T11:26:18.321Z,16.40
2019-05-09T11:28:47.404Z,16.50
2019-05-09T11:31:18.339Z,16.50
2019-05-09T11:33:48.484Z,16.50
2019-05-09T11:36:20.765Z,16.50
2019-05-09T11:38:49.495Z,16.50
2019-05-09T11:41:19.450Z,16.50
2019-05-09T11:43:48.862Z,16.50
2019-05-09T11:46:18.318Z,16.60
2019-05-09T11:48:47.417Z,16.70
2019-05-09T11:51:20.412Z,16.70
2019-05-09T11:53:48.551Z,16.70
2019-05-09T11:56:18.045Z,16.70
2019-05-09T11:58:48.186Z,16.70
2019-05-09T12:01:19.134Z,16.80
2019-05-09T12:03:51.975Z,16.80
2019-05-09T12:06:20.134Z,16.80
2019-05-09T12:08:48.952Z,16.80
2019-05-09T12:11:18.507Z,16.80
2019-05-09T12:13:48.616Z,16.90
2019-05-09T12:16:18.743Z,16.90
2019-05-09T12:18:48.761Z,16.90
2019-05-09T12:21:19.169Z,16.90
2019-05-09T12:23:49.147Z,16.90
2019-05-09T12:26:18.693Z,16.90
2019-05-09T12:28:48.453Z,16.90
2019-05-09T12:31:18.104Z,16.90
2019-05-09T12:33:48.203Z,16.90
2019-05-09T12:36:19.186Z,16.90
2019-05-09T12:38:49.763Z,16.90
2019-05-09T12:41:19.263Z,16.90
2019-05-09T12:43:48.258Z,16.90
2019-05-09T12:46:17.044Z,16.90
2019-05-09T12:48:47.967Z,16.90
2019-05-09T12:51:18.407Z,16.90
2019-05-09T12:53:48.554Z,16.90
2019-05-09T12:56:18.746Z,17.00
2019-05-09T12:58:47.931Z,17.00
2019-05-09T13:01:18.736Z,17.00
2019-05-09T13:03:48.399Z,17.10
2019-05-09T13:06:19.969Z,17.10
2019-05-09T13:08:48.289Z,17.10
2019-05-09T13:11:18.779Z,17.20
2019-05-09T13:13:48.108Z,17.20
2019-05-09T13:16:47.592Z,17.20
2019-05-09T13:19:11.566Z,17.20
2019-05-09T13:21:40.357Z,17.20
2019-05-09T13:24:09.540Z,17.20
2019-05-09T13:26:38.839Z,17.20
2019-05-09T13:29:08.224Z,17.30
2019-05-09T13:31:39.153Z,17.30
2019-05-09T13:34:08.118Z,17.40
2019-05-09T13:36:37.222Z,17.40
2019-05-09T13:39:08.727Z,17.40
2019-05-09T13:41:38.595Z,17.50
2019-05-09T13:44:13.234Z,17.60
2019-05-09T13:46:38.916Z,17.70
2019-05-09T13:49:12.542Z,17.70
2019-05-09T13:51:50.113Z,17.70
2019-05-09T13:54:08.924Z,17.70
2019-05-09T13:56:37.788Z,17.80
2019-05-09T13:59:08.272Z,17.80
2019-05-09T14:01:37.805Z,17.80
2019-05-09T14:04:07.898Z,17.80
2019-05-09T14:06:38.869Z,17.80
2019-05-09T14:09:10.415Z,17.80
2019-05-09T14:11:39.686Z,17.80
2019-05-09T14:14:08.505Z,17.80
2019-05-09T14:16:39.007Z,17.80
2019-05-09T14:19:26.238Z,17.80
2019-05-09T14:21:38.260Z,17.80
2019-05-09T14:24:15.035Z,17.80
2019-05-09T14:26:37.488Z,17.80
2019-05-09T14:29:06.267Z,17.80
2019-05-09T14:31:35.131Z,17.80
2019-05-09T14:34:04.092Z,17.90
2019-05-09T14:36:34.072Z,17.90
2019-05-09T14:39:03.445Z,17.90
2019-05-09T14:41:32.203Z,18.00
2019-05-09T14:44:00.997Z,18.00
2019-05-09T14:46:29.927Z,18.00
2019-05-09T14:48:58.682Z,18.10
2019-05-09T14:51:28.439Z,18.10
2019-05-09T14:53:59.461Z,18.10
2019-05-09T14:56:28.525Z,18.10
2019-05-09T14:58:58.222Z,18.10
2019-05-09T15:01:28.730Z,18.10
2019-05-09T15:03:58.538Z,18.20
2019-05-09T15:06:28.334Z,18.20
2019-05-09T15:08:58.090Z,18.20
2019-05-09T15:11:28.132Z,18.20
2019-05-09T15:13:58.508Z,18.20
2019-05-09T15:16:28.298Z,18.20
2019-05-09T15:18:58.431Z,18.20
2019-05-09T15:21:27.493Z,18.20
2019-05-09T15:23:58.455Z,18.20
2019-05-09T15:26:27.554Z,18.20
2019-05-09T15:28:57.810Z,18.20
2019-05-09T15:31:28.608Z,18.30
2019-05-09T15:33:57.365Z,18.30
2019-05-09T15:36:26.226Z,18.20
2019-05-09T15:38:55.129Z,18.20
2019-05-09T15:41:23.929Z,18.20
2019-05-09T15:43:52.785Z,18.20
2019-05-09T15:46:34.205Z,18.20
2019-05-09T15:49:03.030Z,18.20
2019-05-09T15:51:32.286Z,18.10
2019-05-09T15:54:01.151Z,18.10
2019-05-09T15:56:30.013Z,18.10
2019-05-09T15:58:58.890Z,18.10
2019-05-09T16:01:27.970Z,18.10
2019-05-09T16:03:56.893Z,18.00
2019-05-09T16:06:32.645Z,18.00
2019-05-09T16:08:58.558Z,17.90
2019-05-09T16:11:28.582Z,17.90
2019-05-09T16:13:57.306Z,17.90
2019-05-09T16:16:28.556Z,17.90
2019-05-09T16:18:58.295Z,17.90
2019-05-09T16:21:27.900Z,17.80
2019-05-09T16:23:59.086Z,17.80
2019-05-09T16:26:29.100Z,17.80
2019-05-09T16:28:58.221Z,17.80
2019-05-09T16:31:28.392Z,17.80
2019-05-09T16:33:59.592Z,17.80
2019-05-09T16:36:28.392Z,17.80
2019-05-09T16:38:58.471Z,17.80
2019-05-09T16:41:28.100Z,17.80
2019-05-09T16:43:58.326Z,17.80
2019-05-09T16:46:28.603Z,17.80
2019-05-09T16:49:00.660Z,17.80
2019-05-09T16:51:29.786Z,17.80
2019-05-09T16:53:58.715Z,17.70
2019-05-09T16:56:28.683Z,17.70
2019-05-09T16:58:58.025Z,17.60
2019-05-09T17:01:28.393Z,17.60
2019-05-09T17:03:57.706Z,17.50
2019-05-09T17:06:27.489Z,17.50
2019-05-09T17:08:58.350Z,17.50
2019-05-09T17:11:27.788Z,17.40
2019-05-09T17:13:58.358Z,17.50
2019-05-09T17:16:30.361Z,17.40
2019-05-09T17:18:59.175Z,17.40
2019-05-09T17:21:47.927Z,17.30
2019-05-09T17:24:18.294Z,17.30
2019-05-09T17:26:48.852Z,17.30
2019-05-09T17:29:18.479Z,17.30
2019-05-09T17:31:48.783Z,17.20
2019-05-09T17:34:18.138Z,17.20
2019-05-09T17:36:47.098Z,17.20
2019-05-09T17:39:18.421Z,17.10
2019-05-09T17:41:46.398Z,17.10
2019-05-09T17:44:15.337Z,17.10
2019-05-09T17:46:44.214Z,17.00
2019-05-09T17:49:13.142Z,17.00
2019-05-09T17:51:42.003Z,17.00
2019-05-09T17:54:10.811Z,16.90
2019-05-09T17:56:39.638Z,16.90
2019-05-09T17:59:08.745Z,16.80
2019-05-09T18:01:37.810Z,16.80
2019-05-09T18:04:08.896Z,16.80
2019-05-09T18:06:38.002Z,16.80
2019-05-09T18:09:08.463Z,16.80
2019-05-09T18:11:37.810Z,16.70
2019-05-09T18:14:08.047Z,16.70
2019-05-09T18:16:38.943Z,16.70
2019-05-09T18:19:08.889Z,16.70
2019-05-09T18:21:50.369Z,16.70
2019-05-09T18:24:08.870Z,16.60
2019-05-09T18:26:38.329Z,16.60
2019-05-09T18:29:07.388Z,16.60
2019-05-09T18:31:54.134Z,16.50
2019-05-09T18:34:22.948Z,16.50
2019-05-09T18:36:51.803Z,16.50
2019-05-09T18:39:21.336Z,16.40
2019-05-09T18:41:50.226Z,16.40
2019-05-09T18:44:19.049Z,16.40
2019-05-09T18:46:48.193Z,16.30
2019-05-09T18:49:17.081Z,16.30
2019-05-09T18:51:45.900Z,16.20
2019-05-09T18:54:15.614Z,16.20
2019-05-09T18:56:44.432Z,16.20
2019-05-09T18:59:13.290Z,16.10
2019-05-09T19:01:42.140Z,16.10
2019-05-09T19:04:11.047Z,16.10
2019-05-09T19:06:40.086Z,16.00
2019-05-09T19:09:08.955Z,16.00
2019-05-09T19:11:37.784Z,16.00
2019-05-09T19:14:07.889Z,15.90
2019-05-09T19:16:46.533Z,15.90
2019-05-09T19:19:24.295Z,15.90
2019-05-09T19:21:56.437Z,15.90
2019-05-09T19:24:25.331Z,15.80
2019-05-09T19:26:54.146Z,15.80
2019-05-09T19:29:23.026Z,15.70
2019-05-09T19:31:52.087Z,15.70
2019-05-09T19:34:20.915Z,15.60
2019-05-09T19:36:49.768Z,15.60
2019-05-09T19:39:18.614Z,15.60
2019-05-09T19:41:47.544Z,15.60
2019-05-09T19:44:16.307Z,15.60
2019-05-09T19:46:45.240Z,15.50
2019-05-09T19:49:14.036Z,15.50
2019-05-09T19:51:42.948Z,15.50
2019-05-09T19:54:11.732Z,15.50
2019-05-09T19:56:40.577Z,15.50
2019-05-09T19:59:09.416Z,15.50
2019-05-09T20:01:38.561Z,15.40
2019-05-09T20:04:07.553Z,15.40
2019-05-09T20:06:36.397Z,15.40
2019-05-09T20:09:09.574Z,15.40
2019-05-09T20:11:57.753Z,15.40
2019-05-09T20:14:30.511Z,15.40
2019-05-09T20:16:59.366Z,15.40
2019-05-09T20:19:28.657Z,15.40
2019-05-09T20:21:57.619Z,15.40
2019-05-09T20:24:26.453Z,15.40
2019-05-09T20:26:55.335Z,15.40
2019-05-09T20:29:24.116Z,15.40
2019-05-09T20:31:53.053Z,15.30
2019-05-09T20:34:21.871Z,15.20
2019-05-09T20:36:51.281Z,15.20
2019-05-09T20:39:20.419Z,15.20
2019-05-09T20:41:49.452Z,15.20
2019-05-09T20:44:18.484Z,15.20
2019-05-09T20:46:47.550Z,15.10
2019-05-09T20:49:16.555Z,15.10
2019-05-09T20:51:45.843Z,15.10
2019-05-09T20:54:20.858Z,15.10
2019-05-09T20:56:45.816Z,15.10
2019-05-09T20:59:14.830Z,15.10
2019-05-09T21:01:43.882Z,15.10
2019-05-09T21:04:12.936Z,15.10
2019-05-09T21:06:42.037Z,15.10
2019-05-09T21:09:11.421Z,15.10
2019-05-09T21:11:40.784Z,15.00
2019-05-09T21:14:09.864Z,15.00
2019-05-09T21:16:40.059Z,15.00
2019-05-09T21:19:09.169Z,15.00
2019-05-09T21:21:38.095Z,14.90
2019-05-09T21:24:07.020Z,14.90
2019-05-09T21:26:36.062Z,14.80
2019-05-09T21:29:05.134Z,14.80
2019-05-09T21:31:34.210Z,14.80
2019-05-09T21:34:03.233Z,14.80
2019-05-09T21:36:32.122Z,14.80
2019-05-09T21:39:00.954Z,14.70
2019-05-09T21:41:29.750Z,14.70
2019-05-09T21:43:58.547Z,14.70
2019-05-09T21:46:27.353Z,14.70
2019-05-09T21:48:56.188Z,14.70
2019-05-09T21:51:25.089Z,14.70
2019-05-09T21:53:53.941Z,14.70
2019-05-09T21:56:22.822Z,14.70
2019-05-09T21:58:51.662Z,14.70
2019-05-09T22:01:20.778Z,14.70
2019-05-09T22:03:49.875Z,14.70
2019-05-09T22:06:18.753Z,14.70
2019-05-09T22:08:47.772Z,14.70
2019-05-09T22:11:16.689Z,14.70
2019-05-09T22:13:45.447Z,14.60
2019-05-09T22:16:15.168Z,14.60
2019-05-09T22:18:44.067Z,14.60
2019-05-09T22:21:21.941Z,14.60
2019-05-09T22:23:56.302Z,14.50
2019-05-09T22:26:22.175Z,14.50
2019-05-09T22:28:50.973Z,14.50
2019-05-09T22:31:19.763Z,14.50
2019-05-09T22:33:48.566Z,14.50
2019-05-09T22:36:17.426Z,14.50
2019-05-09T22:38:46.280Z,14.50
2019-05-09T22:41:15.124Z,14.50
2019-05-09T22:43:43.936Z,14.40
2019-05-09T22:46:12.720Z,14.50
2019-05-09T22:48:41.452Z,14.40
2019-05-09T22:51:10.181Z,14.40
2019-05-09T22:53:39.061Z,14.40
2019-05-09T22:56:07.811Z,14.40
2019-05-09T22:58:36.550Z,14.40
2019-05-09T23:01:07.717Z,14.40
2019-05-09T23:03:36.446Z,14.40
2019-05-09T23:06:05.236Z,14.40
2019-05-09T23:08:34.028Z,14.40
2019-05-09T23:11:02.933Z,14.40
2019-05-09T23:13:34.964Z,14.40
2019-05-09T23:16:03.906Z,14.40
2019-05-09T23:18:32.769Z,14.40
2019-05-09T23:21:01.649Z,14.30
2019-05-09T23:23:37.129Z,14.30
2019-05-09T23:26:06.021Z,14.30
2019-05-09T23:28:34.989Z,14.30
2019-05-09T23:31:06.995Z,14.30
2019-05-09T23:33:38.878Z,14.30
2019-05-09T23:36:07.888Z,14.30
2019-05-09T23:38:55.979Z,14.30
2019-05-09T23:41:25.112Z,14.20
2019-05-09T23:43:54.744Z,14.30
2019-05-09T23:46:23.952Z,14.30
2019-05-09T23:48:52.931Z,14.30
2019-05-09T23:51:22.259Z,14.30
2019-05-09T23:53:53.012Z,14.30
2019-05-09T23:56:40.904Z,14.30
2019-05-09T23:59:29.168Z,14.30
